createdAt,value
2022-09-25T00:01:16.021Z,100859.38
2022-09-25T00:03:43.940Z,100851.59
2022-09-25T00:06:26.041Z,100851.97
2022-09-25T00:08:54.661Z,100857.63
2022-09-25T00:11:33.159Z,100855.63
2022-09-25T00:14:02.183Z,100857.41
2022-09-25T00:16:31.957Z,100852.84
2022-09-25T00:19:18.603Z,100855.31
2022-09-25T00:21:47.197Z,100850.69
2022-09-25T00:24:15.419Z,100859.38
2022-09-25T00:26:43.773Z,100855.47
2022-09-25T00:29:21.036Z,100853.75
2022-09-25T00:31:48.331Z,100874.13
2022-09-25T00:34:18.135Z,100863.88
2022-09-25T00:36:45.453Z,100865.59
2022-09-25T00:39:12.829Z,100858.16
2022-09-25T00:41:40.325Z,100868.69
2022-09-25T00:44:46.065Z,100867.16
2022-09-25T00:47:18.089Z,100864.97
2022-09-25T00:49:46.395Z,100847.09
2022-09-25T00:52:14.607Z,100863.63
2022-09-25T00:54:49.339Z,100847.94
2022-09-25T00:57:22.307Z,100864.34
2022-09-25T00:59:57.727Z,100856.47
2022-09-25T01:02:29.538Z,100843.72
2022-09-25T01:05:05.097Z,100848.09
2022-09-25T01:07:37.103Z,100847.56
2022-09-25T01:10:08.404Z,100826.59
2022-09-25T01:12:45.165Z,100842.88
2022-09-25T01:15:15.333Z,100844.00
2022-09-25T01:18:03.920Z,100840.16
2022-09-25T01:20:49.084Z,100826.34
2022-09-25T01:23:30.244Z,100828.06
2022-09-25T01:26:47.171Z,100823.00
2022-09-25T01:29:37.170Z,100819.28
2022-09-25T01:32:14.273Z,100831.41
2022-09-25T01:35:07.107Z,100820.13
2022-09-25T01:37:49.042Z,100815.44
2022-09-25T01:40:19.298Z,100823.72
2022-09-25T01:42:53.278Z,100824.84
2022-09-25T01:45:36.946Z,100820.63
2022-09-25T01:48:08.194Z,100815.09
2022-09-25T01:50:43.395Z,100817.06
2022-09-25T01:53:16.390Z,100816.41
2022-09-25T01:55:58.309Z,100812.72
2022-09-25T01:58:32.326Z,100812.97
2022-09-25T02:01:06.881Z,100807.19
2022-09-25T02:03:44.441Z,100810.78
2022-09-25T02:06:17.246Z,100819.66
2022-09-25T02:09:03.650Z,100818.16
2022-09-25T02:11:43.405Z,100817.56
2022-09-25T02:14:46.843Z,100810.16
2022-09-25T02:17:43.692Z,100814.97
2022-09-25T02:20:29.430Z,100800.28
2022-09-25T02:23:13.991Z,100806.69
2022-09-25T02:25:46.455Z,100810.03
2022-09-25T02:28:13.845Z,100802.75
2022-09-25T02:30:41.341Z,100806.19
2022-09-25T02:33:09.725Z,100805.22
2022-09-25T02:35:38.468Z,100802.72
2022-09-25T02:38:08.635Z,100800.88
2022-09-25T02:40:48.633Z,100798.56
2022-09-25T02:43:29.428Z,100798.03
2022-09-25T02:46:21.808Z,100789.78
2022-09-25T02:48:57.237Z,100787.31
2022-09-25T02:51:40.638Z,100794.09
2022-09-25T02:54:21.952Z,100791.38
2022-09-25T02:57:06.845Z,100787.31
2022-09-25T02:59:40.158Z,100787.31
2022-09-25T03:02:10.024Z,100788.78
2022-09-25T03:04:39.306Z,100772.50
2022-09-25T03:07:07.100Z,100774.69
2022-09-25T03:09:38.417Z,100788.03
2022-09-25T03:12:06.291Z,100791.47
2022-09-25T03:14:33.676Z,100790.63
2022-09-25T03:17:04.976Z,100790.97
2022-09-25T03:19:32.618Z,100800.59
2022-09-25T03:22:00.542Z,100775.66
2022-09-25T03:24:27.961Z,100793.63
2022-09-25T03:26:55.464Z,100794.34
2022-09-25T03:29:23.256Z,100796.31
2022-09-25T03:31:52.514Z,100789.50
2022-09-25T03:34:20.031Z,100792.78
2022-09-25T03:36:47.794Z,100802.91
2022-09-25T03:39:18.150Z,100790.69
2022-09-25T03:41:46.089Z,100791.94
2022-09-25T03:44:13.657Z,100792.63
2022-09-25T03:46:41.064Z,100793.91
2022-09-25T03:49:10.787Z,100790.94
2022-09-25T03:51:39.186Z,100795.13
2022-09-25T03:54:06.528Z,100797.22
2022-09-25T03:56:34.423Z,100796.50
2022-09-25T03:59:01.650Z,100785.69
2022-09-25T04:01:29.423Z,100793.13
2022-09-25T04:03:57.560Z,100794.53
2022-09-25T04:06:26.878Z,100788.13
2022-09-25T04:08:54.982Z,100778.25
2022-09-25T04:11:24.487Z,100777.97
2022-09-25T04:13:52.965Z,100781.59
2022-09-25T04:16:23.621Z,100770.03
2022-09-25T04:18:51.537Z,100773.94
2022-09-25T04:21:24.979Z,100780.59
2022-09-25T04:24:10.977Z,100771.25
2022-09-25T04:26:39.336Z,100772.75
2022-09-25T04:29:07.279Z,100777.06
2022-09-25T04:31:36.336Z,100782.84
2022-09-25T04:34:04.422Z,100786.78
2022-09-25T04:36:31.852Z,100795.06
2022-09-25T04:38:59.163Z,100797.38
2022-09-25T04:41:29.483Z,100799.34
2022-09-25T04:43:59.061Z,100799.59
2022-09-25T04:46:26.537Z,100799.25
2022-09-25T04:48:53.891Z,100810.75
2022-09-25T04:51:22.217Z,100809.00
2022-09-25T04:53:49.561Z,100802.34
2022-09-25T04:56:17.047Z,100805.03
2022-09-25T04:58:49.928Z,100812.69
2022-09-25T05:01:19.304Z,100806.91
2022-09-25T05:03:53.922Z,100820.59
2022-09-25T05:06:23.651Z,100791.38
2022-09-25T05:08:51.011Z,100808.91
2022-09-25T05:11:19.138Z,100796.94
2022-09-25T05:13:50.489Z,100803.59
2022-09-25T05:16:17.818Z,100806.56
2022-09-25T05:18:45.292Z,100810.53
2022-09-25T05:21:12.600Z,100805.72
2022-09-25T05:23:39.985Z,100799.88
2022-09-25T05:26:07.375Z,100797.53
2022-09-25T05:28:34.607Z,100793.38
2022-09-25T05:31:04.116Z,100793.75
2022-09-25T05:33:35.705Z,100791.25
2022-09-25T05:36:05.524Z,100787.25
2022-09-25T05:38:34.445Z,100786.97
2022-09-25T05:41:06.197Z,100778.38
2022-09-25T05:43:35.405Z,100788.69
2022-09-25T05:46:02.834Z,100782.81
2022-09-25T05:48:30.267Z,100771.59
2022-09-25T05:50:58.422Z,100773.88
2022-09-25T05:53:27.136Z,100763.91
2022-09-25T05:55:58.419Z,100765.38
2022-09-25T05:58:27.533Z,100765.44
2022-09-25T06:00:55.611Z,100757.84
2022-09-25T06:03:23.258Z,100760.88
2022-09-25T06:05:50.770Z,100750.75
2022-09-25T06:08:18.992Z,100756.38
2022-09-25T06:10:54.082Z,100757.69
2022-09-25T06:13:22.660Z,100766.34
2022-09-25T06:15:53.054Z,100766.81
2022-09-25T06:18:22.506Z,100762.31
2022-09-25T06:20:50.615Z,100755.25
2022-09-25T06:23:19.456Z,100754.38
2022-09-25T06:25:46.855Z,100756.00
2022-09-25T06:28:14.282Z,100767.47
2022-09-25T06:30:41.862Z,100762.81
2022-09-25T06:33:13.916Z,100761.03
2022-09-25T06:35:43.773Z,100758.53
2022-09-25T06:38:12.118Z,100750.56
2022-09-25T06:40:41.430Z,100755.00
2022-09-25T06:43:16.323Z,100743.78
2022-09-25T06:45:44.501Z,100746.88
2022-09-25T06:48:18.567Z,100734.25
2022-09-25T06:50:52.917Z,100737.06
2022-09-25T06:53:22.060Z,100748.50
2022-09-25T06:55:50.221Z,100747.06
2022-09-25T06:58:21.466Z,100744.69
2022-09-25T07:00:50.665Z,100739.28
2022-09-25T07:03:36.270Z,100728.44
2022-09-25T07:06:06.306Z,100739.66
2022-09-25T07:08:33.810Z,100747.69
2022-09-25T07:11:02.508Z,100748.38
2022-09-25T07:13:33.801Z,100738.38
2022-09-25T07:16:06.126Z,100737.88
2022-09-25T07:18:34.583Z,100732.47
2022-09-25T07:21:07.896Z,100741.75
2022-09-25T07:23:36.511Z,100721.84
2022-09-25T07:26:22.597Z,100743.00
2022-09-25T07:28:55.541Z,100743.09
2022-09-25T07:31:26.542Z,100752.03
2022-09-25T07:33:55.491Z,100734.06
2022-09-25T07:36:22.996Z,100734.94
2022-09-25T07:38:52.160Z,100738.69
2022-09-25T07:41:22.955Z,100737.31
2022-09-25T07:46:46.484Z,100740.88
2022-09-25T07:49:14.490Z,100732.66
2022-09-25T07:51:41.885Z,100726.25
2022-09-25T07:54:09.412Z,100706.84
2022-09-25T07:56:38.601Z,100711.56
2022-09-25T07:59:06.293Z,100733.94
2022-09-25T08:01:33.939Z,100734.97
2022-09-25T08:04:02.914Z,100738.03
2022-09-25T08:06:30.466Z,100734.94
2022-09-25T08:08:59.119Z,100742.31
2022-09-25T08:11:28.324Z,100727.41
2022-09-25T08:13:55.705Z,100751.16
2022-09-25T08:16:23.557Z,100751.50
2022-09-25T08:18:51.019Z,100742.91
2022-09-25T08:21:22.793Z,100753.84
2022-09-25T08:23:56.355Z,100757.00
2022-09-25T08:26:23.871Z,100753.34
2022-09-25T08:28:52.297Z,100763.47
2022-09-25T08:31:20.113Z,100751.97
2022-09-25T08:36:16.989Z,100745.72
2022-09-25T08:38:44.695Z,100753.19
2022-09-25T08:41:21.183Z,100760.22
2022-09-25T08:44:06.652Z,100756.50
2022-09-25T08:47:21.618Z,100753.22
2022-09-25T08:50:09.817Z,100745.69
2022-09-25T08:52:41.539Z,100751.31
2022-09-25T08:55:18.429Z,100749.66
2022-09-25T08:57:48.104Z,100743.97
2022-09-25T09:00:22.102Z,100744.31
2022-09-25T09:02:57.317Z,100745.63
2022-09-25T09:05:27.572Z,100741.16
2022-09-25T09:08:00.874Z,100726.03
2022-09-25T09:10:37.429Z,100738.28
2022-09-25T09:13:26.125Z,100738.44
2022-09-25T09:16:01.957Z,100752.69
2022-09-25T09:18:43.318Z,100745.56
2022-09-25T09:21:34.121Z,100740.66
2022-09-25T09:24:26.678Z,100736.19
2022-09-25T09:27:00.104Z,100735.75
2022-09-25T09:29:52.086Z,100732.72
2022-09-25T09:32:45.920Z,100736.56
2022-09-25T09:35:57.203Z,100733.88
2022-09-25T09:38:35.243Z,100732.22
2022-09-25T09:41:33.765Z,100745.97
2022-09-25T09:44:35.118Z,100752.75
2022-09-25T09:47:26.489Z,100734.69
2022-09-25T09:50:19.083Z,100739.97
2022-09-25T09:52:52.051Z,100704.56
2022-09-25T09:55:28.563Z,100747.88
2022-09-25T09:58:05.400Z,100742.13
2022-09-25T10:00:33.026Z,100735.28
2022-09-25T10:03:11.797Z,100734.41
2022-09-25T10:06:13.568Z,100741.84
2022-09-25T10:08:42.393Z,100709.78
2022-09-25T10:11:17.283Z,100726.72
2022-09-25T10:13:47.167Z,100713.47
2022-09-25T10:16:25.797Z,100724.09
2022-09-25T10:18:53.102Z,100733.75
2022-09-25T10:21:30.575Z,100701.44
2022-09-25T10:23:59.625Z,100739.25
2022-09-25T10:26:33.590Z,100744.84
2022-09-25T10:29:03.658Z,100739.50
2022-09-25T10:31:34.794Z,100722.63
2022-09-25T10:34:07.404Z,100722.84
2022-09-25T10:36:51.504Z,100719.50
2022-09-25T10:39:45.743Z,100713.28
2022-09-25T10:43:02.920Z,100708.50
2022-09-25T10:45:33.613Z,100705.25
2022-09-25T10:48:20.554Z,100686.31
2022-09-25T10:51:08.812Z,100705.16
2022-09-25T10:53:36.361Z,100695.31
2022-09-25T10:56:15.122Z,100701.41
2022-09-25T10:58:55.320Z,100702.53
2022-09-25T11:01:35.783Z,100695.44
2022-09-25T11:04:07.514Z,100664.56
2022-09-25T11:06:35.781Z,100688.03
2022-09-25T11:09:13.578Z,100684.91
2022-09-25T11:11:41.705Z,100673.38
2022-09-25T11:14:37.824Z,100679.00
2022-09-25T11:17:27.160Z,100660.31
2022-09-25T11:20:19.049Z,100659.09
2022-09-25T11:23:26.389Z,100649.66
2022-09-25T11:26:19.322Z,100648.38
2022-09-25T11:29:04.798Z,100642.44
2022-09-25T11:31:41.544Z,100641.44
2022-09-25T11:34:14.837Z,100653.19
2022-09-25T11:36:45.782Z,100639.63
2022-09-25T11:39:41.395Z,100641.03
2022-09-25T11:42:52.261Z,100637.31
2022-09-25T11:45:32.472Z,100641.19
2022-09-25T11:48:22.990Z,100625.81
2022-09-25T11:51:01.636Z,100627.22
2022-09-25T11:53:57.244Z,100617.09
2022-09-25T11:56:39.871Z,100609.63
2022-09-25T11:59:38.602Z,100605.59
2022-09-25T12:02:39.051Z,100607.09
2022-09-25T12:05:23.644Z,100608.34
2022-09-25T12:08:17.206Z,100599.81
2022-09-25T12:10:53.792Z,100596.81
2022-09-25T12:13:45.061Z,100587.81
2022-09-25T12:16:28.990Z,100596.25
2022-09-25T12:19:03.068Z,100598.75
2022-09-25T12:21:45.567Z,100595.78
2022-09-25T12:24:13.849Z,100591.75
2022-09-25T12:26:51.453Z,100572.44
2022-09-25T12:29:29.698Z,100581.47
2022-09-25T12:32:37.642Z,100580.19
2022-09-25T12:35:24.123Z,100574.81
2022-09-25T12:38:02.468Z,100561.25
2022-09-25T12:40:39.234Z,100566.78
2022-09-25T12:43:33.825Z,100561.63
2022-09-25T12:46:15.971Z,100553.56
2022-09-25T12:49:32.044Z,100557.59
2022-09-25T12:52:05.801Z,100554.56
2022-09-25T12:54:47.928Z,100553.72
2022-09-25T12:57:32.171Z,100536.72
2022-09-25T13:00:15.719Z,100542.47
2022-09-25T13:03:09.238Z,100532.28
2022-09-25T13:05:45.637Z,100523.53
2022-09-25T13:08:20.808Z,100534.78
2022-09-25T13:11:00.920Z,100529.97
2022-09-25T13:13:38.142Z,100523.47
2022-09-25T13:16:05.991Z,100499.63
2022-09-25T13:18:35.944Z,100515.19
2022-09-25T13:21:23.973Z,100514.59
2022-09-25T13:23:54.443Z,100510.31
2022-09-25T13:26:27.067Z,100503.56
2022-09-25T13:29:07.981Z,100503.47
2022-09-25T13:31:44.967Z,100501.44
2022-09-25T13:34:16.271Z,100501.88
2022-09-25T13:36:56.249Z,100500.44
2022-09-25T13:39:47.138Z,100505.94
2022-09-25T13:42:38.128Z,100505.06
2022-09-25T13:45:25.223Z,100503.72
2022-09-25T13:48:12.805Z,100496.25
2022-09-25T13:50:43.331Z,100494.53
2022-09-25T13:53:37.543Z,100495.69
2022-09-25T13:56:12.874Z,100497.72
2022-09-25T13:59:16.291Z,100497.41
2022-09-25T14:01:47.935Z,100482.28
2022-09-25T14:04:15.427Z,100490.91
2022-09-25T14:06:45.029Z,100476.22
2022-09-25T14:09:20.055Z,100483.91
2022-09-25T14:11:56.528Z,100492.38
2022-09-25T14:14:42.936Z,100499.63
2022-09-25T14:17:16.880Z,100488.72
2022-09-25T14:19:49.294Z,100490.00
2022-09-25T14:22:30.504Z,100488.13
2022-09-25T14:24:57.965Z,100484.53
2022-09-25T14:27:28.279Z,100469.59
2022-09-25T14:30:11.975Z,100476.50
2022-09-25T14:32:55.696Z,100475.72
2022-09-25T14:35:41.809Z,100470.91
2022-09-25T14:38:31.942Z,100468.94
2022-09-25T14:41:23.712Z,100472.16
2022-09-25T14:44:18.065Z,100467.84
2022-09-25T14:46:49.947Z,100464.91
2022-09-25T14:49:39.646Z,100464.31
2022-09-25T14:52:11.409Z,100470.66
2022-09-25T14:54:43.403Z,100470.59
2022-09-25T14:57:12.207Z,100470.19
2022-09-25T14:59:52.852Z,100446.41
2022-09-25T15:02:27.092Z,100464.84
2022-09-25T15:04:58.789Z,100448.31
2022-09-25T15:07:28.227Z,100456.63
2022-09-25T15:09:56.439Z,100447.63
2022-09-25T15:12:34.195Z,100445.94
2022-09-25T15:15:12.058Z,100446.81
2022-09-25T15:17:55.039Z,100434.25
2022-09-25T15:20:27.023Z,100435.94
2022-09-25T15:22:59.826Z,100442.50
2022-09-25T15:25:40.563Z,100439.69
2022-09-25T15:28:10.291Z,100445.00
2022-09-25T15:30:42.125Z,100440.69
2022-09-25T15:33:24.009Z,100415.03
2022-09-25T15:35:59.652Z,100436.53
2022-09-25T15:38:34.996Z,100435.66
2022-09-25T15:41:03.798Z,100438.16
2022-09-25T15:43:31.722Z,100439.59
2022-09-25T15:46:19.241Z,100442.94
2022-09-25T15:48:58.136Z,100440.25
2022-09-25T15:51:30.861Z,100444.50
2022-09-25T15:53:59.369Z,100446.75
2022-09-25T15:56:29.835Z,100444.94
2022-09-25T15:59:01.813Z,100431.50
2022-09-25T16:01:53.968Z,100441.81
2022-09-25T16:04:42.664Z,100451.25
2022-09-25T16:07:32.310Z,100449.56
2022-09-25T16:10:03.533Z,100450.81
2022-09-25T16:12:42.838Z,100450.84
2022-09-25T16:15:31.792Z,100442.44
2022-09-25T16:18:05.713Z,100437.34
2022-09-25T16:20:36.823Z,100449.34
2022-09-25T16:23:07.400Z,100444.94
2022-09-25T16:25:37.646Z,100455.00
2022-09-25T16:28:29.162Z,100452.19
2022-09-25T16:31:01.489Z,100451.53
2022-09-25T16:33:52.062Z,100441.25
2022-09-25T16:36:19.885Z,100418.44
2022-09-25T16:39:23.560Z,100442.88
2022-09-25T16:41:51.684Z,100439.53
2022-09-25T16:44:20.571Z,100443.97
2022-09-25T16:47:20.750Z,100443.56
2022-09-25T16:49:49.740Z,100443.34
2022-09-25T16:52:20.816Z,100447.00
2022-09-25T16:54:53.309Z,100442.03
2022-09-25T16:57:22.817Z,100450.19
2022-09-25T16:59:50.707Z,100440.16
2022-09-25T17:02:36.295Z,100463.19
2022-09-25T17:05:17.984Z,100458.19
2022-09-25T17:07:50.773Z,100460.16
2022-09-25T17:10:23.855Z,100465.84
2022-09-25T17:12:54.135Z,100464.91
2022-09-25T17:15:23.800Z,100471.13
2022-09-25T17:17:54.557Z,100446.88
2022-09-25T17:20:26.759Z,100471.13
2022-09-25T17:22:55.112Z,100458.22
2022-09-25T17:25:45.231Z,100474.69
2022-09-25T17:28:13.391Z,100483.16
2022-09-25T17:30:45.362Z,100480.41
2022-09-25T17:33:18.193Z,100467.94
2022-09-25T17:35:53.593Z,100473.94
2022-09-25T17:38:20.773Z,100496.75
2022-09-25T17:40:52.529Z,100496.59
2022-09-25T17:43:20.770Z,100477.09
2022-09-25T17:45:51.172Z,100510.31
2022-09-25T17:48:26.364Z,100514.81
2022-09-25T17:51:00.360Z,100483.63
2022-09-25T17:53:32.994Z,100488.59
2022-09-25T17:56:01.735Z,100513.59
2022-09-25T17:58:32.618Z,100498.66
2022-09-25T18:01:01.989Z,100520.97
2022-09-25T18:03:31.181Z,100504.66
2022-09-25T18:06:01.973Z,100515.13
2022-09-25T18:08:32.393Z,100525.09
2022-09-25T18:11:00.010Z,100535.72
2022-09-25T18:13:27.749Z,100513.06
2022-09-25T18:16:02.295Z,100516.53
2022-09-25T18:18:48.341Z,100515.66
2022-09-25T18:21:34.664Z,100519.97
2022-09-25T18:24:02.384Z,100525.31
2022-09-25T18:26:31.576Z,100538.81
2022-09-25T18:28:59.307Z,100524.75
2022-09-25T18:31:27.062Z,100505.22
2022-09-25T18:33:55.391Z,100530.25
2022-09-25T18:36:23.234Z,100542.06
2022-09-25T18:38:50.635Z,100548.59
2022-09-25T18:41:18.112Z,100536.59
2022-09-25T18:43:45.624Z,100546.03
2022-09-25T18:46:13.436Z,100546.19
2022-09-25T18:48:46.278Z,100546.03
2022-09-25T18:51:14.541Z,100530.59
2022-09-25T18:53:42.110Z,100523.06
2022-09-25T18:56:09.872Z,100543.31
2022-09-25T18:58:37.382Z,100533.84
2022-09-25T19:01:07.789Z,100535.41
2022-09-25T19:03:40.089Z,100541.75
2022-09-25T19:06:10.675Z,100545.84
2022-09-25T19:08:38.269Z,100541.22
2022-09-25T19:11:14.181Z,100523.03
2022-09-25T19:13:44.312Z,100526.66
2022-09-25T19:16:11.859Z,100536.25
2022-09-25T19:18:39.275Z,100539.53
2022-09-25T19:21:07.039Z,100532.31
2022-09-25T19:23:39.142Z,100546.19
2022-09-25T19:26:06.722Z,100532.31
2022-09-25T19:28:35.109Z,100535.22
2022-09-25T19:31:06.148Z,100514.47
2022-09-25T19:33:36.266Z,100523.91
2022-09-25T19:36:07.751Z,100535.53
2022-09-25T19:38:37.496Z,100535.72
2022-09-25T19:41:13.065Z,100527.47
2022-09-25T19:43:40.779Z,100530.75
2022-09-25T19:46:08.723Z,100521.28
2022-09-25T19:48:36.534Z,100513.22
2022-09-25T19:51:08.300Z,100530.13
2022-09-25T19:53:36.795Z,100528.72
2022-09-25T19:56:04.264Z,100522.06
2022-09-25T19:58:38.489Z,100525.47
2022-09-25T20:01:14.560Z,100528.41
2022-09-25T20:03:42.298Z,100532.81
2022-09-25T20:06:12.182Z,100498.56
2022-09-25T20:08:40.144Z,100524.97
2022-09-25T20:11:22.248Z,100508.88
2022-09-25T20:13:51.637Z,100472.50
2022-09-25T20:16:25.423Z,100512.28
2022-09-25T20:18:58.033Z,100510.22
2022-09-25T20:21:27.159Z,100502.19
2022-09-25T20:23:56.977Z,100504.44
2022-09-25T20:26:25.496Z,100500.31
2022-09-25T20:29:01.266Z,100497.25
2022-09-25T20:31:31.126Z,100497.91
2022-09-25T20:33:58.922Z,100506.97
2022-09-25T20:36:26.465Z,100493.28
2022-09-25T20:38:56.206Z,100516.72
2022-09-25T20:41:25.356Z,100508.81
2022-09-25T20:43:56.085Z,100496.88
2022-09-25T20:46:24.683Z,100507.00
2022-09-25T20:48:53.653Z,100496.19
2022-09-25T20:51:27.321Z,100492.75
2022-09-25T20:54:01.164Z,100503.53
2022-09-25T20:56:32.281Z,100500.97
2022-09-25T20:59:01.183Z,100493.63
2022-09-25T21:01:32.028Z,100486.13
2022-09-25T21:04:01.035Z,100486.97
2022-09-25T21:06:32.807Z,100481.84
2022-09-25T21:09:02.742Z,100487.31
2022-09-25T21:11:31.966Z,100470.34
2022-09-25T21:14:02.935Z,100495.16
2022-09-25T21:16:32.821Z,100478.72
2022-09-25T21:19:04.472Z,100483.19
2022-09-25T21:21:33.524Z,100468.81
2022-09-25T21:24:02.799Z,100474.78
2022-09-25T21:26:31.798Z,100464.69
2022-09-25T21:29:02.436Z,100454.44
2022-09-25T21:31:36.904Z,100448.59
2022-09-25T21:34:06.108Z,100448.59
2022-09-25T21:36:33.867Z,100449.28
2022-09-25T21:39:02.070Z,100434.22
2022-09-25T21:41:30.650Z,100440.19
2022-09-25T21:44:00.675Z,100441.22
2022-09-25T21:46:29.243Z,100439.34
2022-09-25T21:48:59.241Z,100440.00
2022-09-25T21:51:29.808Z,100436.25
2022-09-25T21:53:57.593Z,100422.50
2022-09-25T21:56:30.216Z,100440.34
2022-09-25T21:58:58.330Z,100441.06
2022-09-25T22:01:28.397Z,100441.41
2022-09-25T22:03:57.889Z,100421.91
2022-09-25T22:06:35.337Z,100429.09
2022-09-25T22:09:06.692Z,100420.69
2022-09-25T22:11:35.009Z,100413.50
2022-09-25T22:14:02.430Z,100419.31
2022-09-25T22:16:32.941Z,100416.94
2022-09-25T22:19:12.232Z,100416.44
2022-09-25T22:21:40.520Z,100419.50
2022-09-25T22:24:09.230Z,100421.56
2022-09-25T22:26:38.660Z,100398.94
2022-09-25T22:29:06.851Z,100422.94
2022-09-25T22:31:36.401Z,100425.69
2022-09-25T22:34:08.604Z,100426.41
2022-09-25T22:36:36.716Z,100425.19
2022-09-25T22:39:05.728Z,100424.69
2022-09-25T22:41:33.671Z,100433.44
2022-09-25T22:44:03.199Z,100429.31
2022-09-25T22:46:31.131Z,100421.78
2022-09-25T22:48:58.687Z,100416.81
2022-09-25T22:51:26.577Z,100432.06
2022-09-25T22:53:55.198Z,100416.13
2022-09-25T22:56:28.605Z,100415.09
2022-09-25T22:58:58.581Z,100404.81
2022-09-25T23:01:38.761Z,100413.38
2022-09-25T23:04:10.309Z,100410.66
2022-09-25T23:06:38.748Z,100418.00
2022-09-25T23:09:10.821Z,100399.50
2022-09-25T23:11:38.360Z,100393.63
2022-09-25T23:14:08.187Z,100394.28
2022-09-25T23:16:35.998Z,100382.47
2022-09-25T23:19:04.346Z,100407.34
2022-09-25T23:21:32.468Z,100404.09
2022-09-25T23:24:02.436Z,100404.78
2022-09-25T23:26:30.371Z,100398.25
2022-09-25T23:29:04.373Z,100398.91
2022-09-25T23:31:33.173Z,100361.22
2022-09-25T23:34:02.026Z,100361.00
2022-09-25T23:36:30.551Z,100387.22
2022-09-25T23:39:01.156Z,100373.84
2022-09-25T23:41:31.709Z,100363.72
2022-09-25T23:44:00.946Z,100371.56
2022-09-25T23:46:31.287Z,100372.09
2022-09-25T23:48:59.873Z,100376.19
2022-09-25T23:51:27.801Z,100367.59
2022-09-25T23:53:58.345Z,100370.31
2022-09-25T23:56:29.607Z,100373.78
2022-09-25T23:58:58.630Z,100384.34
